TimeCST,TemperatureF,Dew PointF,Humidity,Sea Level PressureIn,VisibilityMPH,Wind Direction,Wind SpeedMPH,Gust SpeedMPH,PrecipitationIn,Events,Conditions,WindDirDegrees,DateUTC
12:14 AM,-7.6,-14.8,71,30.27,10.0,WNW,6.9,-,N/A,,Clear,290,2013-01-22 06:14:00
12:34 AM,-7.6,-14.8,71,30.28,10.0,WNW,6.9,-,N/A,,Clear,300,2013-01-22 06:34:00
12:54 AM,-7.6,-14.8,71,30.28,10.0,WNW,9.2,-,N/A,,Clear,290,2013-01-22 06:54:00
1:14 AM,-7.6,-14.8,71,30.29,10.0,WNW,6.9,-,N/A,,Clear,290,2013-01-22 07:14:00
1:34 AM,-7.6,-14.8,71,30.29,10.0,WNW,8.1,-,N/A,,Clear,300,2013-01-22 07:34:00
1:54 AM,-7.6,-14.8,71,30.30,10.0,WNW,8.1,-,N/A,,Clear,290,2013-01-22 07:54:00
2:14 AM,-7.6,-14.8,71,30.31,10.0,WNW,6.9,-,N/A,,Clear,300,2013-01-22 08:14:00
2:54 AM,-7.6,-14.8,71,30.31,10.0,WNW,6.9,-,N/A,,Clear,300,2013-01-22 08:54:00
3:14 AM,-9.4,-14.8,77,30.31,10.0,WNW,5.8,-,N/A,,Clear,290,2013-01-22 09:14:00
3:34 AM,-9.4,-16.6,71,30.31,10.0,WNW,6.9,-,N/A,,Clear,300,2013-01-22 09:34:00
3:54 AM,-9.4,-16.6,71,30.31,10.0,NW,5.8,-,N/A,,Clear,310,2013-01-22 09:54:00
4:14 AM,-9.4,-16.6,71,30.31,10.0,WNW,6.9,-,N/A,,Clear,300,2013-01-22 10:14:00
4:34 AM,-9.4,-16.6,71,30.31,10.0,NW,5.8,-,N/A,,Clear,310,2013-01-22 10:34:00
4:54 AM,-9.4,-16.6,71,30.32,10.0,NW,6.9,-,N/A,,Clear,310,2013-01-22 10:54:00
5:14 AM,-9.4,-16.6,71,30.32,10.0,NW,6.9,-,N/A,,Clear,310,2013-01-22 11:14:00
5:34 AM,-11.2,-16.6,77,30.33,10.0,NW,6.9,-,N/A,,Clear,310,2013-01-22 11:34:00
5:54 AM,-11.2,-18.4,70,30.33,10.0,NW,5.8,-,N/A,,Clear,310,2013-01-22 11:54:00
6:14 AM,-11.2,-18.4,70,30.33,10.0,NW,5.8,-,N/A,,Clear,310,2013-01-22 12:14:00
6:34 AM,-11.2,-18.4,70,30.33,10.0,NW,5.8,-,N/A,,Clear,310,2013-01-22 12:34:00
6:45 AM,-11.2,-18.4,70,30.33,12.0,NW,6.9,-,N/A,,Clear,310,2013-01-22 12:45:00
6:54 AM,-11.2,-18.4,70,30.34,10.0,NW,4.6,-,N/A,,Clear,310,2013-01-22 12:54:00
7:50 AM,-11.2,-18.4,70,30.33,12.0,NW,5.8,-,N/A,,Scattered Clouds,310,2013-01-22 13:50:00
8:45 AM,-9.4,-18.4,65,30.35,12.0,WNW,5.8,-,N/A,,Partly Cloudy,290,2013-01-22 14:45:00
9:45 AM,-7.6,-16.6,65,30.37,12.0,Calm,Calm,-,N/A,,Clear,0,2013-01-22 15:45:00
10:45 AM,-5.8,-14.8,65,30.37,10.0,Calm,Calm,-,N/A,,Overcast,0,2013-01-22 16:45:00
12:45 PM,-0.4,-13.0,55,30.34,10.0,WNW,4.6,-,N/A,,Overcast,290,2013-01-22 18:45:00
1:55 PM,1.4,-11.2,56,30.39,10.0,West,5.8,-,N/A,,Mostly Cloudy,260,2013-01-22 19:55:00
2:45 PM,1.4,-9.4,61,30.31,10.0,WSW,5.8,-,N/A,,Mostly Cloudy,240,2013-01-22 20:45:00
4:45 PM,1.4,-9.4,61,30.30,10.0,WSW,4.6,-,N/A,,Mostly Cloudy,240,2013-01-22 22:45:00
5:45 PM,19.4,-9.4,28,30.29,10.0,WSW,3.5,-,N/A,,Mostly Cloudy,240,2013-01-22 23:45:00
7:55 PM,1.4,-7.6,66,30.25,10.0,SW,8.1,-,N/A,,Overcast,220,2013-01-23 01:55:00
9:14 PM,3.2,-5.8,66,30.25,10.0,Calm,Calm,-,N/A,,Overcast,0,2013-01-23 03:14:00
9:34 PM,3.2,-5.8,66,30.24,10.0,SW,3.5,-,N/A,,Overcast,230,2013-01-23 03:34:00
9:54 PM,3.2,-5.8,66,30.24,10.0,SW,4.6,-,N/A,,Overcast,220,2013-01-23 03:54:00
10:14 PM,3.2,-5.8,66,30.23,10.0,Calm,Calm,-,N/A,,Overcast,0,2013-01-23 04:14:00
10:34 PM,5.0,-5.8,61,30.22,10.0,SSW,3.5,-,N/A,,Overcast,210,2013-01-23 04:34:00
10:54 PM,5.0,-4.0,66,30.22,10.0,SSW,3.5,-,N/A,,Overcast,210,2013-01-23 04:54:00
11:14 PM,5.0,-4.0,66,30.22,10.0,SW,4.6,-,N/A,,Overcast,220,2013-01-23 05:14:00
11:34 PM,6.8,-4.0,61,30.22,10.0,SW,3.5,-,N/A,,Overcast,220,2013-01-23 05:34:00
11:54 PM,6.8,-4.0,61,30.22,10.0,SW,3.5,-,N/A,,Overcast,230,2013-01-23 05:54:00